Accueil
METAR-TAF:

METAR-TAF

Aéroports :

Burlington / Mount Vernon, Washington, États-Unis

latitude: 48-28-15N, longitude: 122-25-15W, altitude: 44 m

Observation

Le bulletin a été fait il y a 25 minutes, à 10:55 UTC
Vent calme
Température -1°C
Humidité 100%
Pression 1027 hPa
Visibilité: 2.0 km
Nuages épars à une hauteur de 200 ft
Nuages fragmentés à une hauteur de 3100 ft
Ciel couvert à une hauteur de 3900 ft
brume

METAR: KBVS 111055Z AUTO 00000KT 1 1/4SM BR SCT002 BKN031 OVC039 M01/M01 A3033 RMK A01

Heure: 03:20 (11:20 UTC)


TAF: absent

Observations et prévisions météorologiques de plus de 4000 aéroports (messages METAR et TAF).

Les stations disponibles sont représentées par des disques jaunes et rouges sur la carte.

Passer la souris dessus pour voir le nom de la station.

Cliquer dessus pour voir les observations et prévisions météorologiques.

Pour changer de carte: cliquez sur les boutons verts avec une croix noire pour zoomer, sur le bouton vert avec un tiret pour effectuer un zoom arrière, ou sur les flèches vertes pour les cartes adjacentes.


METAR-TAF: